TimeEST,TemperatureF,Dew PointF,Humidity,Sea Level PressureIn,VisibilityMPH,Wind Direction,Wind SpeedMPH,Gust SpeedMPH,PrecipitationIn,Events,Conditions,WindDirDegrees,DateUTC
12:45 AM,53.6,46.4,77,29.94,10.0,NNW,19.6,26.5,0.00,Rain,Light Rain,340,2012-12-05 05:45:00
12:54 AM,51.1,46.0,83,29.96,4.0,NNW,10.4,27.6,0.00,Rain,Rain,340,2012-12-05 05:54:00
1:01 AM,50.0,46.4,87,29.97,2.5,NW,6.9,17.3,0.03,Rain,Heavy Rain,320,2012-12-05 06:01:00
1:15 AM,50.0,46.4,87,29.98,4.0,Variable,3.5,19.6,0.08,Rain,Light Rain,0,2012-12-05 06:15:00
1:54 AM,50.0,46.0,86,29.99,3.0,Calm,Calm,-,0.17,Rain,Rain,0,2012-12-05 06:54:00
2:30 AM,48.2,46.4,93,30.00,8.0,Calm,Calm,-,0.03,Rain,Light Rain,0,2012-12-05 07:30:00
2:41 AM,48.2,46.4,93,30.01,5.0,WNW,4.6,-,0.04,Rain,Light Rain,300,2012-12-05 07:41:00
2:54 AM,48.0,45.0,89,30.01,5.0,NW,6.9,-,0.06,Rain,Rain,310,2012-12-05 07:54:00
3:04 AM,48.2,44.6,87,30.02,7.0,West,3.5,-,0.01,Rain,Light Rain,280,2012-12-05 08:04:00
3:17 AM,48.2,44.6,87,30.01,8.0,Calm,Calm,-,0.02,Rain,Light Rain,0,2012-12-05 08:17:00
3:54 AM,48.0,44.1,86,29.99,10.0,Calm,Calm,-,0.02,,Overcast,0,2012-12-05 08:54:00
4:50 AM,46.4,44.6,93,29.99,10.0,West,3.5,-,N/A,,Mostly Cloudy,280,2012-12-05 09:50:00
4:54 AM,46.0,45.0,96,30.00,10.0,West,3.5,-,N/A,,Mostly Cloudy,280,2012-12-05 09:54:00
5:05 AM,46.4,44.6,93,30.00,10.0,Calm,Calm,-,N/A,,Mostly Cloudy,0,2012-12-05 10:05:00
5:17 AM,46.4,44.6,93,30.00,10.0,Calm,Calm,-,N/A,,Overcast,0,2012-12-05 10:17:00
5:38 AM,46.4,39.2,76,30.01,10.0,West,9.2,-,N/A,,Scattered Clouds,280,2012-12-05 10:38:00
5:54 AM,45.0,39.9,82,30.02,10.0,WSW,9.2,-,N/A,,Clear,250,2012-12-05 10:54:00
6:24 AM,44.6,39.2,81,30.03,10.0,West,8.1,-,N/A,,Mostly Cloudy,260,2012-12-05 11:24:00
6:54 AM,44.6,39.2,81,30.05,10.0,West,6.9,-,N/A,,Overcast,270,2012-12-05 11:54:00
7:54 AM,44.1,37.9,79,30.07,10.0,West,3.5,-,N/A,,Mostly Cloudy,280,2012-12-05 12:54:00
9:54 AM,44.1,35.1,71,30.09,10.0,WSW,6.9,-,N/A,,Mostly Cloudy,250,2012-12-05 14:54:00
10:54 AM,45.0,34.0,65,30.08,10.0,West,6.9,-,N/A,,Overcast,270,2012-12-05 15:54:00
11:54 AM,45.0,30.0,56,30.07,10.0,WNW,9.2,19.6,N/A,,Overcast,290,2012-12-05 16:54:00
12:54 PM,45.0,30.9,58,30.07,10.0,NNW,13.8,-,N/A,,Overcast,330,2012-12-05 17:54:00
1:54 PM,43.0,30.9,62,30.08,10.0,NNW,13.8,26.5,N/A,,Mostly Cloudy,340,2012-12-05 18:54:00
2:54 PM,42.1,27.0,55,30.11,10.0,NNW,20.7,28.8,N/A,,Mostly Cloudy,330,2012-12-05 19:54:00
3:54 PM,37.0,21.0,52,30.16,10.0,NW,19.6,29.9,N/A,,Mostly Cloudy,320,2012-12-05 20:54:00
4:54 PM,36.0,18.0,48,30.19,10.0,NW,18.4,27.6,N/A,,Mostly Cloudy,310,2012-12-05 21:54:00
5:54 PM,35.1,21.0,57,30.22,10.0,NW,16.1,26.5,N/A,,Overcast,320,2012-12-05 22:54:00
6:54 PM,34.0,21.0,59,30.25,10.0,NW,11.5,-,N/A,,Overcast,320,2012-12-05 23:54:00
7:54 PM,33.1,19.9,59,30.26,10.0,NNW,13.8,21.9,N/A,,Overcast,330,2012-12-06 00:54:00
8:54 PM,30.9,16.0,54,30.29,10.0,NNW,13.8,-,N/A,,Overcast,330,2012-12-06 01:54:00
9:54 PM,30.0,18.0,61,30.29,10.0,NNW,12.7,21.9,N/A,,Overcast,330,2012-12-06 02:54:00
10:54 PM,30.0,18.0,61,30.30,10.0,NNW,10.4,-,N/A,,Overcast,340,2012-12-06 03:54:00
11:54 PM,30.0,19.0,64,30.29,10.0,NNW,6.9,-,N/A,,Overcast,340,2012-12-06 04:54:00